Time;durP1;ratioP1;P1;durP2;ratioP2;P2;SDS_P1;SDS_P2;PMS_P1;PMS_P2;Temp;Humidity;BMP_temperature;BMP_pressure;BME280_temperature;BME280_humidity;BME280_pressure;Samples;Min_cycle;Max_cycle;Signal;HPM_P1;HPM_P2
2021/10/09 00:02:14;;;;;;;24.57;20.93;;;10.00;99.90;;;;;;4997582;28;20446;-83
2021/10/09 00:04:41;;;;;;;26.47;22.00;;;10.00;99.90;;;;;;4999440;28;20455;-89
2021/10/09 00:07:10;;;;;;;25.50;22.17;;;10.00;99.90;;;;;;5000267;28;20952;-88
2021/10/09 00:09:37;;;;;;;25.23;19.63;;;10.00;99.90;;;;;;5001477;28;20982;-87
2021/10/09 00:12:09;;;;;;;26.53;23.23;;;10.00;99.90;;;;;;5006438;28;20455;-88
2021/10/09 00:14:36;;;;;;;23.67;21.10;;;9.90;99.90;;;;;;5006063;28;20920;-88
2021/10/09 00:17:05;;;;;;;24.17;20.50;;;9.80;99.90;;;;;;5004007;28;20460;-88
2021/10/09 00:19:33;;;;;;;26.20;22.53;;;10.00;99.90;;;;;;5017303;28;20455;-88
2021/10/09 00:22:01;;;;;;;26.70;21.23;;;9.90;99.90;;;;;;5009966;28;20443;-88
2021/10/09 00:24:29;;;;;;;21.23;17.80;;;9.80;99.90;;;;;;5016157;28;20450;-88
2021/10/09 00:26:58;;;;;;;28.57;21.10;;;9.70;99.90;;;;;;4998780;28;20983;-88
2021/10/09 00:29:29;;;;;;;24.67;20.73;;;9.70;99.90;;;;;;5015984;28;20482;-89
2021/10/09 00:31:56;;;;;;;22.67;20.27;;;9.80;99.90;;;;;;5011934;28;20462;-89
2021/10/09 00:34:23;;;;;;;24.30;19.97;;;9.80;99.90;;;;;;5012531;28;20452;-89
2021/10/09 00:36:52;;;;;;;21.63;18.60;;;9.80;99.90;;;;;;5010718;28;20485;-90
2021/10/09 00:39:19;;;;;;;29.67;20.47;;;9.80;99.90;;;;;;5003913;28;20475;-89
2021/10/09 00:41:47;;;;;;;27.50;21.13;;;9.80;99.90;;;;;;5003622;28;20983;-90
2021/10/09 00:44:18;;;;;;;26.60;22.80;;;9.70;99.90;;;;;;5000048;28;20459;-90
2021/10/09 00:46:49;;;;;;;34.00;22.17;;;9.70;99.90;;;;;;5004957;28;20519;-88
2021/10/09 00:49:16;;;;;;;28.10;23.73;;;9.60;99.90;;;;;;5004544;28;20471;-88
2021/10/09 00:51:46;;;;;;;27.40;23.53;;;9.50;99.90;;;;;;4998231;28;20465;-89
2021/10/09 00:54:15;;;;;;;30.40;24.70;;;9.40;99.90;;;;;;4998749;28;20447;-87
2021/10/09 00:56:44;;;;;;;29.63;25.03;;;9.30;99.90;;;;;;4996952;28;20485;-90
2021/10/09 00:59:12;;;;;;;28.27;22.50;;;9.40;99.90;;;;;;5008287;28;20459;-88
2021/10/09 01:01:40;;;;;;;29.67;23.00;;;9.20;99.90;;;;;;5012165;28;20451;-89
2021/10/09 01:04:10;;;;;;;31.57;22.70;;;9.30;99.90;;;;;;4994361;28;20488;-88
2021/10/09 01:06:38;;;;;;;25.80;22.03;;;9.30;99.90;;;;;;4994336;28;20538;-88
2021/10/09 01:09:07;;;;;;;29.73;24.07;;;9.30;99.90;;;;;;4995053;28;20487;-89
2021/10/09 01:11:38;;;;;;;24.00;19.50;;;9.30;99.90;;;;;;4997570;28;20459;-89
2021/10/09 01:14:06;;;;;;;28.70;19.57;;;9.50;99.90;;;;;;4997436;28;20467;-89
2021/10/09 01:16:34;;;;;;;22.60;18.70;;;9.40;99.90;;;;;;4997327;28;20493;-89
2021/10/09 01:19:02;;;;;;;22.20;19.40;;;9.30;99.90;;;;;;5001550;28;20558;-90
2021/10/09 01:21:39;;;;;;;21.50;19.20;;;9.20;99.90;;;;;;4999723;28;20549;-90
2021/10/09 01:24:08;;;;;;;21.83;17.50;;;9.20;99.90;;;;;;5006779;28;20461;-89
2021/10/09 01:26:39;;;;;;;20.27;17.40;;;9.20;99.90;;;;;;5007270;28;20809;-89
2021/10/09 01:29:08;;;;;;;19.60;17.50;;;9.20;99.90;;;;;;4997339;28;20482;-88
2021/10/09 01:31:37;;;;;;;23.93;19.90;;;9.20;99.90;;;;;;4997539;28;20461;-89
2021/10/09 01:34:04;;;;;;;26.10;20.00;;;9.20;99.90;;;;;;4999022;28;20462;-89
2021/10/09 01:36:35;;;;;;;22.97;18.97;;;9.30;99.90;;;;;;5020441;28;20462;-88
2021/10/09 01:39:04;;;;;;;22.10;19.70;;;9.30;99.90;;;;;;5008032;28;20468;-88
2021/10/09 01:41:37;;;;;;;23.60;17.60;;;9.30;99.90;;;;;;4997700;28;20459;-88
2021/10/09 01:44:05;;;;;;;22.70;18.90;;;9.30;99.90;;;;;;4997396;28;20478;-88
2021/10/09 01:46:33;;;;;;;23.70;19.63;;;9.30;99.90;;;;;;4997234;28;20454;-90
2021/10/09 01:49:03;;;;;;;21.93;19.00;;;9.30;99.90;;;;;;4996806;28;20491;-88
2021/10/09 01:51:31;;;;;;;20.30;17.77;;;9.30;99.90;;;;;;4997844;28;20455;-90
2021/10/09 01:53:59;;;;;;;20.43;18.23;;;9.20;99.90;;;;;;4997703;28;20451;-88
2021/10/09 01:56:28;;;;;;;22.50;18.73;;;9.10;99.90;;;;;;5016700;28;20446;-88
2021/10/09 01:58:56;;;;;;;23.80;19.27;;;9.10;99.90;;;;;;5017589;28;20510;-88
2021/10/09 02:01:24;;;;;;;24.00;18.97;;;9.00;99.90;;;;;;4997368;28;20486;-88
2021/10/09 02:03:52;;;;;;;22.40;18.77;;;9.00;99.90;;;;;;4996896;28;20458;-88
2021/10/09 02:06:20;;;;;;;21.67;19.17;;;9.00;99.90;;;;;;4996735;28;20451;-88
2021/10/09 02:08:48;;;;;;;23.00;20.27;;;9.00;99.90;;;;;;4996621;28;20471;-88
2021/10/09 02:11:19;;;;;;;21.97;19.37;;;8.90;99.90;;;;;;4996816;28;20944;-88
2021/10/09 02:13:51;;;;;;;23.93;19.40;;;8.90;99.90;;;;;;4997395;28;20463;-88
2021/10/09 02:16:47;;;;;;;24.60;19.50;;;8.80;99.90;;;;;;5017125;28;20441;-88
2021/10/09 02:25:12;;;;;;;25.57;20.40;;;8.70;99.90;;;;;;5001719;28;20509;-88
2021/10/09 02:27:44;;;;;;;21.97;18.50;;;8.60;99.90;;;;;;5008917;28;21002;-88
2021/10/09 02:30:11;;;;;;;27.10;21.93;;;8.70;99.90;;;;;;5000183;28;20498;-88
2021/10/09 02:32:38;;;;;;;24.73;19.00;;;8.60;99.90;;;;;;5000670;28;20951;-89
2021/10/09 02:35:08;;;;;;;23.00;18.97;;;8.60;99.90;;;;;;5003298;28;20519;-88
2021/10/09 02:37:35;;;;;;;26.30;21.53;;;8.60;99.90;;;;;;5002719;28;20477;-89
2021/10/09 02:40:04;;;;;;;25.10;18.63;;;8.60;99.90;;;;;;5001493;28;20475;-88
2021/10/09 02:42:31;;;;;;;30.23;20.23;;;8.60;99.90;;;;;;4997854;28;20541;-88
2021/10/09 02:45:01;;;;;;;28.40;21.90;;;8.60;99.90;;;;;;5010900;28;20452;-88
2021/10/09 02:47:29;;;;;;;26.23;22.67;;;8.60;99.90;;;;;;5019115;28;20443;-89
2021/10/09 02:49:57;;;;;;;23.33;19.87;;;8.60;99.90;;;;;;5020237;28;20482;-90
2021/10/09 02:52:25;;;;;;;26.43;20.30;;;8.60;99.90;;;;;;5013500;28;20447;-89
2021/10/09 02:54:53;;;;;;;22.63;19.70;;;8.50;99.90;;;;;;5016223;28;20443;-89
2021/10/09 02:57:21;;;;;;;23.43;19.63;;;8.40;99.90;;;;;;5009252;28;20574;-88
2021/10/09 02:59:48;;;;;;;24.83;19.73;;;8.40;99.90;;;;;;4997851;28;20486;-89
2021/10/09 03:02:17;;;;;;;27.30;21.80;;;8.40;99.90;;;;;;4997629;28;20463;-88
2021/10/09 03:04:44;;;;;;;28.07;20.60;;;8.40;99.90;;;;;;4997761;28;20462;-89
2021/10/09 03:07:11;;;;;;;28.37;20.77;;;8.30;99.90;;;;;;4996335;28;20454;-89
2021/10/09 03:09:39;;;;;;;25.30;20.70;;;8.30;99.90;;;;;;4996094;28;20455;-88
2021/10/09 03:12:08;;;;;;;27.57;22.23;;;8.20;99.90;;;;;;4996013;28;20663;-89
2021/10/09 03:14:36;;;;;;;28.23;21.20;;;8.20;99.90;;;;;;4995887;28;21022;-89
2021/10/09 03:17:05;;;;;;;28.80;21.00;;;8.20;99.90;;;;;;4995755;28;20451;-88
2021/10/09 03:19:33;;;;;;;27.30;22.87;;;8.20;99.90;;;;;;4995354;28;20976;-89
2021/10/09 03:22:02;;;;;;;26.37;22.27;;;8.10;99.90;;;;;;4996143;28;20466;-89
2021/10/09 03:24:29;;;;;;;27.20;21.90;;;8.10;99.90;;;;;;5018502;28;20455;-88
2021/10/09 03:26:56;;;;;;;26.70;21.00;;;8.10;99.90;;;;;;4996857;28;20470;-88
2021/10/09 03:29:26;;;;;;;28.27;21.27;;;8.10;99.90;;;;;;4994548;28;20479;-89
2021/10/09 03:31:53;;;;;;;29.30;22.60;;;8.10;99.90;;;;;;5001464;28;20478;-89
2021/10/09 03:34:20;;;;;;;31.53;22.77;;;8.00;99.90;;;;;;5007927;28;20497;-90
2021/10/09 03:36:51;;;;;;;28.83;22.27;;;8.00;99.90;;;;;;5018607;28;20518;-88
2021/10/09 03:39:21;;;;;;;24.13;20.67;;;8.00;99.90;;;;;;5012290;28;20473;-88
2021/10/09 03:41:55;;;;;;;24.20;20.97;;;8.00;99.90;;;;;;5010475;28;20867;-89
2021/10/09 03:44:23;;;;;;;22.10;19.70;;;8.10;99.90;;;;;;4995570;28;20460;-89
2021/10/09 03:46:59;;;;;;;25.10;19.60;;;8.10;99.90;;;;;;4994802;28;20455;-88
2021/10/09 03:49:38;;;;;;;23.20;19.50;;;8.10;99.90;;;;;;4995329;28;20917;-88
2021/10/09 03:52:34;;;;;;;24.20;19.77;;;8.00;99.90;;;;;;4996246;28;20454;-89
2021/10/09 03:55:01;;;;;;;25.50;20.30;;;8.00;99.90;;;;;;4997052;28;20537;-89
2021/10/09 03:57:31;;;;;;;25.33;19.67;;;8.00;99.90;;;;;;4994738;28;21073;-88
2021/10/09 03:59:58;;;;;;;26.10;20.60;;;7.90;99.90;;;;;;5044612;23;20493;-88
2021/10/09 04:02:25;;;;;;;22.63;18.80;;;7.90;99.90;;;;;;5057616;28;20449;-89
2021/10/09 04:04:51;;;;;;;21.00;18.30;;;7.90;99.90;;;;;;5058548;28;20421;-88
2021/10/09 04:07:19;;;;;;;25.83;21.03;;;7.90;99.90;;;;;;5050877;28;20437;-89
2021/10/09 04:09:46;;;;;;;28.80;20.63;;;7.90;99.90;;;;;;5036423;28;20473;-89
2021/10/09 04:12:13;;;;;;;24.77;21.27;;;7.80;99.90;;;;;;5033433;28;20972;-89
2021/10/09 04:14:40;;;;;;;28.70;20.17;;;7.70;99.90;;;;;;5033853;28;20456;-89
2021/10/09 04:17:07;;;;;;;27.10;19.53;;;7.70;99.90;;;;;;5034267;28;20457;-90
2021/10/09 04:19:34;;;;;;;27.63;21.27;;;7.80;99.90;;;;;;5034099;28;20471;-90
2021/10/09 04:22:01;;;;;;;23.07;20.20;;;7.90;99.90;;;;;;5036599;28;20445;-90
2021/10/09 04:24:29;;;;;;;23.80;19.13;;;7.90;99.90;;;;;;5033642;28;20515;-89
2021/10/09 04:26:56;;;;;;;22.10;19.17;;;7.90;99.90;;;;;;5034646;28;20448;-89
2021/10/09 04:29:23;;;;;;;24.93;18.67;;;8.10;99.90;;;;;;5034277;28;20461;-91
2021/10/09 04:31:50;;;;;;;22.43;19.97;;;8.00;99.90;;;;;;5033972;28;20527;-91
2021/10/09 04:34:17;;;;;;;22.53;18.20;;;8.10;99.90;;;;;;5033896;28;20452;-91
2021/10/09 04:36:44;;;;;;;21.10;17.30;;;8.00;99.90;;;;;;5033463;28;20433;-90
2021/10/09 04:39:11;;;;;;;21.60;18.13;;;8.10;99.90;;;;;;5032769;28;20491;-91
2021/10/09 04:41:39;;;;;;;25.20;19.90;;;8.10;99.90;;;;;;5032797;28;20452;-90
2021/10/09 04:44:06;;;;;;;22.57;17.50;;;8.10;99.90;;;;;;5031960;28;20434;-90
2021/10/09 04:46:33;;;;;;;21.23;18.10;;;8.00;99.90;;;;;;5032834;28;20560;-91
2021/10/09 04:49:00;;;;;;;24.17;18.47;;;8.00;99.90;;;;;;5036434;28;20978;-89
2021/10/09 04:51:27;;;;;;;23.63;19.17;;;8.10;99.90;;;;;;5032519;28;20457;-91
2021/10/09 04:53:54;;;;;;;20.87;17.83;;;8.10;99.90;;;;;;5032650;28;20448;-89
2021/10/09 04:56:20;;;;;;;22.00;18.07;;;8.10;99.90;;;;;;5032851;28;20445;-91
2021/10/09 04:58:48;;;;;;;25.83;19.90;;;8.10;99.90;;;;;;5035110;28;20493;-89
2021/10/09 05:01:15;;;;;;;22.83;17.90;;;8.10;99.90;;;;;;5055642;28;20449;-88
2021/10/09 05:03:42;;;;;;;22.50;18.00;;;8.00;99.90;;;;;;5044682;28;20433;-88
2021/10/09 05:06:09;;;;;;;20.50;18.20;;;8.00;99.90;;;;;;5042949;28;20440;-89
2021/10/09 05:08:35;;;;;;;22.50;19.17;;;8.00;99.90;;;;;;5038337;28;20822;-90
2021/10/09 05:11:02;;;;;;;22.70;19.27;;;8.00;99.90;;;;;;5033753;28;20715;-90
2021/10/09 05:13:29;;;;;;;24.53;18.70;;;7.90;99.90;;;;;;5032758;28;20452;-90
2021/10/09 05:15:57;;;;;;;22.10;18.40;;;7.90;99.90;;;;;;5032749;28;20800;-90
2021/10/09 05:18:24;;;;;;;21.90;18.30;;;7.90;99.90;;;;;;5032754;28;20477;-90
2021/10/09 05:20:51;;;;;;;24.37;19.37;;;7.80;99.90;;;;;;5037558;28;20518;-89
2021/10/09 05:23:17;;;;;;;27.53;19.30;;;7.80;99.90;;;;;;5034855;28;20450;-89
2021/10/09 05:25:44;;;;;;;23.77;19.13;;;7.80;99.90;;;;;;5033026;28;20460;-89
2021/10/09 05:28:14;;;;;;;26.23;18.70;;;7.80;99.90;;;;;;5032659;28;20495;-89
2021/10/09 05:30:46;;;;;;;23.10;19.20;;;7.80;99.90;;;;;;5033051;28;20993;-90
2021/10/09 05:33:20;;;;;;;20.30;17.67;;;7.80;99.90;;;;;;5032620;28;20455;-90
2021/10/09 05:35:47;;;;;;;23.50;18.20;;;7.80;99.90;;;;;;5032366;28;20453;-90
2021/10/09 05:38:14;;;;;;;24.10;18.40;;;7.80;99.90;;;;;;5032176;28;21016;-90
2021/10/09 05:40:41;;;;;;;24.40;20.17;;;7.70;99.90;;;;;;5032436;28;20492;-90
2021/10/09 05:43:08;;;;;;;25.80;21.27;;;7.70;99.90;;;;;;5032776;28;20460;-89
2021/10/09 05:45:35;;;;;;;23.83;18.40;;;7.70;99.90;;;;;;5032400;28;20444;-90
2021/10/09 05:48:02;;;;;;;25.53;19.33;;;7.70;99.90;;;;;;5032426;28;20476;-89
2021/10/09 05:50:35;;;;;;;23.20;19.67;;;7.70;99.90;;;;;;5033372;28;21049;-90
2021/10/09 05:53:11;;;;;;;26.20;20.47;;;7.70;99.90;;;;;;5044713;28;20428;-91
2021/10/09 05:55:45;;;;;;;21.30;18.80;;;7.80;99.90;;;;;;5055859;28;20456;-89
2021/10/09 05:58:16;;;;;;;26.70;20.03;;;7.80;99.90;;;;;;5037117;28;20993;-87
2021/10/09 06:01:06;;;;;;;23.60;19.63;;;7.90;99.90;;;;;;5041896;28;20468;-86
2021/10/09 06:31:41;;;;;;;23.67;20.23;;;8.30;99.90;;;;;;5057976;28;20452;-87
2021/10/09 06:48:07;;;;;;;24.90;20.07;;;8.60;99.90;;;;;;5008239;28;20440;-90
2021/10/09 06:50:58;;;;;;;21.97;19.13;;;8.60;99.90;;;;;;5044175;28;20473;-90
2021/10/09 07:01:38;;;;;;;28.47;21.10;;;8.90;99.90;;;;;;5035548;28;20436;-90
2021/10/09 07:04:05;;;;;;;26.57;21.63;;;9.00;99.90;;;;;;5035906;28;20497;-90
2021/10/09 07:06:32;;;;;;;25.00;21.60;;;9.00;99.90;;;;;;5036083;28;20449;-90
2021/10/09 07:08:58;;;;;;;23.83;19.87;;;9.10;99.90;;;;;;5035423;28;20511;-89
2021/10/09 07:11:27;;;;;;;24.80;20.47;;;9.20;99.90;;;;;;5036105;28;20445;-90
2021/10/09 07:13:53;;;;;;;24.63;22.07;;;9.30;99.90;;;;;;5035877;28;20453;-91
2021/10/09 07:16:20;;;;;;;22.43;19.97;;;9.40;99.90;;;;;;5044011;28;20452;-91
2021/10/09 07:18:47;;;;;;;22.80;20.23;;;9.50;99.90;;;;;;5040252;28;20559;-89
2021/10/09 07:21:13;;;;;;;22.00;19.60;;;9.50;99.90;;;;;;5038011;28;20452;-90
2021/10/09 07:23:40;;;;;;;23.33;20.47;;;9.60;99.90;;;;;;5036346;28;20445;-88
2021/10/09 07:26:07;;;;;;;24.73;20.43;;;9.70;99.90;;;;;;5037591;28;20533;-90
2021/10/09 07:28:35;;;;;;;26.73;20.30;;;9.80;99.90;;;;;;5035178;28;20499;-90
2021/10/09 07:31:02;;;;;;;25.50;19.77;;;9.90;99.90;;;;;;5035614;28;20445;-91
2021/10/09 07:33:29;;;;;;;24.40;19.43;;;9.90;99.90;;;;;;5036773;28;20456;-90
2021/10/09 07:35:55;;;;;;;22.43;19.67;;;10.00;99.90;;;;;;5039462;28;20441;-89
2021/10/09 07:38:22;;;;;;;27.10;19.40;;;10.10;99.90;;;;;;5043330;28;20547;-87
2021/10/09 07:40:49;;;;;;;20.80;18.57;;;10.20;99.90;;;;;;5036179;28;20449;-88
2021/10/09 07:43:16;;;;;;;23.20;19.20;;;10.30;99.90;;;;;;5037445;28;20887;-87
2021/10/09 07:45:44;;;;;;;24.87;19.27;;;10.40;99.90;;;;;;5056508;28;20448;-89
2021/10/09 07:48:10;;;;;;;20.80;18.50;;;10.50;99.90;;;;;;5040382;28;20458;-88
2021/10/09 07:50:38;;;;;;;24.47;18.30;;;10.60;99.90;;;;;;5035241;28;20465;-88
2021/10/09 07:53:04;;;;;;;19.57;17.63;;;10.70;99.90;;;;;;5035107;28;20453;-88
2021/10/09 07:55:31;;;;;;;22.83;18.23;;;10.80;99.90;;;;;;5034484;28;20456;-88
2021/10/09 07:57:58;;;;;;;20.87;18.77;;;10.90;99.90;;;;;;5035456;28;20449;-89
2021/10/09 08:00:24;;;;;;;21.40;18.30;;;11.00;99.90;;;;;;5035420;28;20871;-89
2021/10/09 08:02:53;;;;;;;20.40;16.93;;;11.10;99.90;;;;;;5035743;28;20488;-88
2021/10/09 08:05:23;;;;;;;21.07;18.33;;;11.50;99.90;;;;;;5034684;28;20520;-88
2021/10/09 08:07:49;;;;;;;21.30;18.10;;;11.70;99.90;;;;;;5038111;28;20460;-88
2021/10/09 08:10:16;;;;;;;23.63;18.33;;;12.20;99.90;;;;;;5051629;28;20880;-88
2021/10/09 08:12:43;;;;;;;21.33;18.10;;;12.60;99.90;;;;;;5044130;28;20804;-87
2021/10/09 08:15:10;;;;;;;20.90;17.87;;;12.60;99.90;;;;;;5038619;28;20448;-88
2021/10/09 08:17:38;;;;;;;20.20;17.90;;;12.70;99.90;;;;;;5040443;28;20636;-88
2021/10/09 08:20:08;;;;;;;19.33;16.50;;;12.70;99.90;;;;;;5036779;28;20497;-89
2021/10/09 08:22:39;;;;;;;19.87;17.73;;;12.80;99.90;;;;;;5040553;28;20438;-88
2021/10/09 08:25:24;;;;;;;21.00;18.90;;;12.80;99.90;;;;;;5055105;28;20469;-88
2021/10/09 08:28:06;;;;;;;21.03;18.60;;;12.80;99.90;;;;;;5055445;28;20455;-88
2021/10/09 08:36:13;;;;;;;20.57;18.40;;;12.80;99.90;;;;;;5008135;28;20435;-88
2021/10/09 08:38:47;;;;;;;21.27;19.10;;;12.90;99.90;;;;;;5046013;28;20481;-88
2021/10/09 08:41:14;;;;;;;22.20;19.80;;;12.80;99.90;;;;;;5050472;28;20461;-88
2021/10/09 08:43:43;;;;;;;22.63;20.10;;;12.90;99.90;;;;;;5039923;28;20460;-89
2021/10/09 08:46:10;;;;;;;20.73;18.53;;;12.90;99.90;;;;;;5038741;28;20457;-89
2021/10/09 08:48:40;;;;;;;23.77;20.90;;;13.00;99.90;;;;;;5036248;28;20444;-89
2021/10/09 08:51:09;;;;;;;20.57;18.37;;;13.10;99.90;;;;;;5036839;28;20450;-89
2021/10/09 08:53:37;;;;;;;19.67;17.63;;;13.10;99.90;;;;;;5035522;28;20450;-89
2021/10/09 08:56:04;;;;;;;21.23;18.30;;;13.20;99.90;;;;;;5036229;28;20935;-88
2021/10/09 08:58:32;;;;;;;21.40;18.93;;;13.30;99.90;;;;;;5036055;28;20450;-89
2021/10/09 09:01:05;;;;;;;20.40;18.17;;;13.60;99.90;;;;;;5036228;28;20442;-88
2021/10/09 09:26:23;;;;;;;25.17;19.77;;;14.90;99.90;;;;;;5036830;28;20511;-88
2021/10/09 09:31:53;;;;;;;21.93;18.23;;;14.50;99.90;;;;;;5040169;28;20428;-88
2021/10/09 09:34:34;;;;;;;18.90;17.00;;;14.60;99.90;;;;;;5056360;28;20460;-88
2021/10/09 09:37:06;;;;;;;20.00;18.13;;;14.60;99.90;;;;;;5054088;28;20452;-89
2021/10/09 09:39:42;;;;;;;22.77;19.30;;;14.90;99.90;;;;;;5047595;28;20510;-88
2021/10/09 09:42:23;;;;;;;22.13;18.03;;;15.60;99.90;;;;;;5047264;28;20855;-88
2021/10/09 09:44:54;;;;;;;20.63;18.53;;;15.80;99.60;;;;;;5046942;28;20432;-90
2021/10/09 09:47:34;;;;;;;17.90;16.00;;;15.90;99.30;;;;;;5050076;28;20453;-91
2021/10/09 09:50:04;;;;;;;22.00;16.50;;;16.70;98.30;;;;;;5052355;28;20461;-90
2021/10/09 09:52:35;;;;;;;22.83;18.80;;;18.60;95.80;;;;;;5060909;28;20496;-90
2021/10/09 09:55:05;;;;;;;18.63;16.57;;;20.70;91.30;;;;;;5055271;28;20472;-91
2021/10/09 09:57:35;;;;;;;19.00;15.40;;;23.30;85.70;;;;;;5044598;28;20441;-89
2021/10/09 10:00:05;;;;;;;17.93;16.23;;;25.30;75.20;;;;;;5041349;28;20886;-91
2021/10/09 10:02:34;;;;;;;17.27;15.50;;;28.00;66.30;;;;;;5051805;28;20454;-91
2021/10/09 10:05:02;;;;;;;17.70;16.00;;;29.20;56.30;;;;;;5045364;28;20445;-90
2021/10/09 10:07:29;;;;;;;19.20;17.40;;;29.30;53.40;;;;;;5056512;28;20442;-90
2021/10/09 10:09:56;;;;;;;17.23;15.73;;;28.00;54.20;;;;;;5064598;28;20449;-91
2021/10/09 10:12:30;;;;;;;17.90;15.70;;;27.70;54.60;;;;;;5063717;28;20447;-89
2021/10/09 10:15:00;;;;;;;16.10;14.40;;;26.40;56.50;;;;;;5071312;28;21280;-91
2021/10/09 10:17:37;;;;;;;16.00;14.60;;;26.40;56.00;;;;;;5060034;28;20452;-91
2021/10/09 10:20:06;;;;;;;17.73;15.93;;;26.00;55.90;;;;;;5045488;28;20867;-92
2021/10/09 10:22:59;;;;;;;15.23;13.70;;;25.40;57.70;;;;;;5045253;28;20442;-90
2021/10/09 10:25:41;;;;;;;16.63;15.13;;;25.60;57.60;;;;;;5053467;28;20513;-92
2021/10/09 10:28:13;;;;;;;16.07;14.57;;;27.60;56.10;;;;;;5048567;28;20528;-91
2021/10/09 10:30:49;;;;;;;17.00;15.27;;;30.50;52.00;;;;;;5053503;28;20548;-91
2021/10/09 10:33:44;;;;;;;15.70;14.07;;;31.20;48.50;;;;;;5056110;28;20432;-91
2021/10/09 10:36:13;;;;;;;15.20;13.63;;;32.00;46.90;;;;;;5064815;28;20439;-91
2021/10/09 10:38:54;;;;;;;15.50;14.00;;;31.60;46.80;;;;;;5064339;28;20440;-92
2021/10/09 10:41:41;;;;;;;15.00;13.60;;;31.40;45.20;;;;;;5057883;28;20515;-91
2021/10/09 10:44:14;;;;;;;15.97;14.57;;;31.90;45.50;;;;;;5053114;28;20848;-91
2021/10/09 10:46:54;;;;;;;14.60;13.10;;;32.70;44.80;;;;;;5047611;28;20437;-92
2021/10/09 10:49:46;;;;;;;15.20;12.70;;;32.90;42.00;;;;;;5048641;28;20476;-91
2021/10/09 10:52:50;;;;;;;11.87;10.77;;;31.50;42.10;;;;;;5056492;28;20443;-92
2021/10/09 10:55:20;;;;;;;14.57;13.27;;;32.40;41.00;;;;;;5053240;28;20437;-91
2021/10/09 10:58:19;;;;;;;12.67;11.37;;;30.50;42.00;;;;;;5043433;28;20449;-92
2021/10/09 11:01:18;;;;;;;12.93;11.87;;;29.50;43.80;;;;;;5058047;28;20481;-91
2021/10/09 11:03:50;;;;;;;13.90;12.80;;;29.40;44.80;;;;;;5055777;28;20513;-91
2021/10/09 11:06:20;;;;;;;13.13;11.67;;;28.70;45.30;;;;;;5060479;28;20476;-91
2021/10/09 11:08:51;;;;;;;13.10;12.00;;;29.10;45.70;;;;;;5049999;28;20499;-90
2021/10/09 11:11:37;;;;;;;12.50;11.40;;;29.30;44.90;;;;;;5049657;28;20550;-88
2021/10/09 11:14:04;;;;;;;14.50;13.20;;;28.70;44.80;;;;;;5052545;28;20439;-87
2021/10/09 11:16:32;;;;;;;14.23;13.00;;;29.40;45.60;;;;;;5049187;28;20440;-90
2021/10/09 11:18:59;;;;;;;13.27;11.97;;;30.80;43.70;;;;;;5051953;28;20460;-89
2021/10/09 11:21:26;;;;;;;12.50;11.13;;;30.20;42.70;;;;;;5053619;28;20440;-90
2021/10/09 11:23:54;;;;;;;13.40;11.13;;;28.60;43.90;;;;;;5060631;28;20531;-89
2021/10/09 11:26:22;;;;;;;12.50;11.30;;;27.40;46.00;;;;;;5066556;28;20449;-88
2021/10/09 11:29:03;;;;;;;15.23;12.23;;;27.30;46.50;;;;;;5049302;28;20484;-90
2021/10/09 11:31:34;;;;;;;13.37;11.87;;;28.30;46.50;;;;;;5048904;28;20449;-87
2021/10/09 11:34:02;;;;;;;12.30;11.00;;;28.60;45.40;;;;;;5046493;28;20468;-89
2021/10/09 11:36:29;;;;;;;12.47;11.37;;;29.40;44.00;;;;;;5047059;28;20436;-89
2021/10/09 11:39:03;;;;;;;12.87;11.53;;;29.90;43.50;;;;;;5046445;28;20448;-89
2021/10/09 11:41:30;;;;;;;12.40;11.40;;;30.80;42.10;;;;;;5047554;28;20488;-89
2021/10/09 11:44:01;;;;;;;12.93;11.73;;;29.90;42.70;;;;;;5029607;28;20436;-88
2021/10/09 11:55:01;;;;;;;11.50;10.43;;;30.30;42.50;;;;;;5063307;28;20459;-88
2021/10/09 11:57:30;;;;;;;13.27;11.27;;;31.60;41.90;;;;;;5050468;28;20455;-88
2021/10/09 11:59:57;;;;;;;11.80;10.87;;;30.30;40.70;;;;;;5048447;28;20539;-88
2021/10/09 12:02:35;;;;;;;11.97;10.97;;;29.20;41.80;;;;;;5046123;28;20827;-89
2021/10/09 12:05:04;;;;;;;12.37;11.13;;;29.50;42.50;;;;;;5047691;28;20508;-90
2021/10/09 12:07:30;;;;;;;12.30;11.00;;;28.70;43.20;;;;;;5048400;28;20443;-89
2021/10/09 12:10:01;;;;;;;12.80;11.60;;;28.90;43.30;;;;;;5046890;28;20460;-88
2021/10/09 12:12:33;;;;;;;11.37;10.33;;;29.10;43.20;;;;;;5044741;28;20514;-88
2021/10/09 12:15:01;;;;;;;13.70;12.30;;;29.50;42.80;;;;;;5046366;28;20447;-88
2021/10/09 12:17:36;;;;;;;13.23;11.83;;;28.30;44.10;;;;;;5044350;28;20844;-89
2021/10/09 12:20:07;;;;;;;12.60;11.40;;;26.90;46.00;;;;;;5044009;28;20533;-88
2021/10/09 12:22:43;;;;;;;14.47;11.67;;;26.70;47.20;;;;;;5042106;28;20445;-88
2021/10/09 12:25:22;;;;;;;13.60;11.13;;;28.20;46.10;;;;;;5045232;28;20442;-88
2021/10/09 12:27:59;;;;;;;12.83;11.53;;;27.90;45.10;;;;;;5042680;28;20441;-89
2021/10/09 12:30:35;;;;;;;12.90;11.57;;;25.40;48.00;;;;;;5049233;28;20462;-91
2021/10/09 12:33:02;;;;;;;13.73;12.33;;;23.80;51.70;;;;;;5048888;28;20441;-88
2021/10/09 12:35:33;;;;;;;12.00;10.53;;;23.50;52.10;;;;;;5060759;28;20450;-89
2021/10/09 12:38:03;;;;;;;13.67;12.33;;;22.70;52.70;;;;;;5050875;28;20446;-90
2021/10/09 12:40:37;;;;;;;12.30;10.87;;;22.30;54.30;;;;;;5045969;28;20478;-89
2021/10/09 12:43:05;;;;;;;13.17;11.87;;;21.60;56.10;;;;;;5048396;28;20516;-91
2021/10/09 12:45:32;;;;;;;13.07;11.80;;;21.20;57.70;;;;;;5055233;28;20478;-89
2021/10/09 12:48:00;;;;;;;11.67;10.67;;;21.70;57.40;;;;;;5064352;28;20453;-89
2021/10/09 12:50:31;;;;;;;15.37;10.67;;;22.60;55.50;;;;;;5051905;28;20651;-90
2021/10/09 12:52:58;;;;;;;11.33;10.37;;;23.50;53.20;;;;;;5046615;28;20450;-89
2021/10/09 12:55:27;;;;;;;12.03;10.73;;;24.00;52.90;;;;;;5047716;28;20447;-88
2021/10/09 12:57:55;;;;;;;12.13;11.03;;;24.30;51.50;;;;;;5048986;28;20442;-88
2021/10/09 13:00:24;;;;;;;13.30;11.90;;;23.10;52.30;;;;;;5046303;28;20481;-89
2021/10/09 13:02:52;;;;;;;12.70;11.37;;;22.10;53.90;;;;;;5055217;28;20418;-88
2021/10/09 13:05:21;;;;;;;15.93;12.00;;;21.60;55.30;;;;;;5046118;28;20434;-88
2021/10/09 13:07:52;;;;;;;14.43;11.53;;;22.30;54.80;;;;;;5057315;28;20442;-88
2021/10/09 13:10:20;;;;;;;12.33;11.13;;;23.20;53.00;;;;;;5048982;28;20522;-89
2021/10/09 13:12:47;;;;;;;13.23;11.07;;;23.80;52.60;;;;;;5049982;28;20444;-89
2021/10/09 13:15:17;;;;;;;12.03;11.00;;;24.20;51.90;;;;;;5063949;28;20449;-89
2021/10/09 13:17:44;;;;;;;12.43;10.80;;;24.10;52.00;;;;;;5058696;28;20439;-89
2021/10/09 13:20:11;;;;;;;12.90;11.77;;;23.60;52.40;;;;;;5080489;23;20517;-87
2021/10/09 13:22:38;;;;;;;11.43;10.43;;;23.00;53.00;;;;;;5032171;28;20443;-89
2021/10/09 13:25:08;;;;;;;11.70;10.20;;;22.70;52.90;;;;;;5029002;28;20446;-89
2021/10/09 13:27:35;;;;;;;12.03;10.87;;;23.10;53.10;;;;;;5029028;28;20466;-88
2021/10/09 13:30:03;;;;;;;11.90;10.40;;;23.40;53.00;;;;;;5029282;28;20473;-88
2021/10/09 13:32:30;;;;;;;12.70;11.27;;;23.50;52.30;;;;;;5064073;23;20560;-80
2021/10/09 13:34:56;;;;;;;11.00;9.93;;;23.50;52.30;;;;;;5030791;28;20451;-79
2021/10/09 13:37:25;;;;;;;13.57;11.13;;;22.90;53.20;;;;;;5030193;28;20528;-80
2021/10/09 13:39:54;;;;;;;10.93;9.90;;;21.60;54.60;;;;;;5031116;28;20441;-79
2021/10/09 13:42:23;;;;;;;11.00;10.10;;;21.00;56.10;;;;;;5031229;28;20542;-79
2021/10/09 13:44:50;;;;;;;12.23;10.80;;;20.50;57.00;;;;;;5028320;28;20462;-80
2021/10/09 13:47:16;;;;;;;11.93;10.30;;;20.00;58.00;;;;;;5029212;28;20434;-81
2021/10/09 13:49:43;;;;;;;11.97;10.77;;;19.70;59.10;;;;;;5027084;28;21278;-81
2021/10/09 13:52:10;;;;;;;12.17;10.60;;;19.60;59.30;;;;;;5032596;28;20502;-81
2021/10/09 13:54:36;;;;;;;14.23;10.30;;;19.40;59.60;;;;;;5031586;28;20450;-81
2021/10/09 13:57:03;;;;;;;13.07;8.90;;;19.90;59.80;;;;;;5033084;28;20429;-81
2021/10/09 13:59:36;;;;;;;12.30;10.50;;;20.40;58.50;;;;;;5035425;28;20507;-81
2021/10/09 14:02:03;;;;;;;16.70;9.40;;;21.40;57.90;;;;;;5036104;28;20534;-81
2021/10/09 14:04:36;;;;;;;11.43;10.20;;;21.90;56.30;;;;;;5034776;28;20431;-82
2021/10/09 14:07:03;;;;;;;10.80;9.70;;;22.10;55.60;;;;;;5035743;28;20430;-81
2021/10/09 14:09:30;;;;;;;13.23;10.73;;;21.70;56.60;;;;;;5042237;28;20475;-84
2021/10/09 14:11:57;;;;;;;10.87;9.77;;;21.70;56.60;;;;;;5036241;28;20438;-87
2021/10/09 14:14:25;;;;;;;11.70;10.63;;;21.70;56.50;;;;;;5045798;28;20515;-86
2021/10/09 14:16:55;;;;;;;11.90;10.60;;;21.40;56.50;;;;;;5039287;28;20443;-86
2021/10/09 14:19:22;;;;;;;11.10;9.70;;;21.10;57.50;;;;;;5042476;28;20456;-85
2021/10/09 14:21:49;;;;;;;11.53;9.97;;;21.10;57.90;;;;;;5006674;28;20494;-86
2021/10/09 14:24:16;;;;;;;12.17;10.23;;;20.90;57.70;;;;;;5007191;28;20450;-87